Предлагаем Вашему вниманию английскую версию страницы: AUTOTAF.ME 34727 - aviation weather forecast Ejsk

AUTOTAF 34727 - авиапрогноз Ейск

Сегодня рассвет 03:30 UTC, восход солнца 04:01 UTC,
местный полдень 09:10 UTC, заход солнца 14:19 UTC,
наступление темноты 14:50 UTC.

Краткий прогноз 34727 на 9 часов

AUTOTAF.ME 34727 260800Z 2609/2618 08010MPS CAVOK

Детальный прогноз 34727 на 24 часа

AUTOTAF.ME 34727 260800Z 2609/2709 08010MPS 9999 FEW220 TX15/2612Z TN12/2706Z      
  BECMG 2622/2700 SCT123TCU   
  BECMG 2704/2706 SCT170  
  FM270900 08010MPS 9999 VCSH SCT103CB

Подробный табличный прогноз

Время (UTC) miniAUTOTAF на 3 ч WX FZLVL
M AGL
ICE TURB Т
(°С)
Тd
(°С)
f(%) QNH
(гПа)
WIND/T
06 08010MPS 9999 OVC160 3300 MOD FL170/FL190 13 9 77 1020 ...
09 08010MPS 9999 FEW220 3300 14 9 74 1020 ...
12 07009MPS 9999 FEW220 3300 15 10 70 1020 ...
15 08009MPS 9999 OVC290 3300 15 10 70 1019 ...
18 08010MPS 9999 OVC290 3000 14 9 71 1020 ...
21 09011MPS 9999 OVC310 3300 14 8 70 1020 ...
27.10.2020
00 09011MPS 9999 SCT123TCU 3000 MOD FL120/FL130 13 8 69 1020 ...
03 09011MPS 9999 BKN123TCU 3000 FBL FL120/FL130 MOD FL90/FL120 13 7 69 1020 ...
06 09011MPS 9999 SCT170 3000 MOD FL90/FL100 12 7 69 1021 ...
09 08010MPS 9999 VCSH SCT103CB VCSH 3000 MOD FL110/FL120 MOD SFC/FL20 14 8 64 1021 ...
12 08010MPS 9999 VCSH SCT085CB VCSH 3000 MOD FL110/FL120 MOD FL20/FL30 16 8 61 1020 ...
15 08010G15MPS 9999 BKN190 3000 MOD SFC/FL20 15 8 61 1020 ...
18 09011G16MPS 9999 BKN144 3000 MOD FL150/FL160 MOD SFC/FL20 14 7 61 1021 ...
21 09011MPS 9999 SCT180 3000 14 8 66 1019 ...
28.10.2020
00 09011MPS 9999 BKN123TCU 3000 MOD SFC/FL120 13 8 71 1020 ...
03 09012MPS 9999 BKN012 3000 FBL FL120/FL130 MOD SFC/FL120 12 8 79 1019 ...


Широта 46.8°, долгота 38.3°, высота 3 м абс.
Средняя высота рельефа местности 1 м абс.
Прогнозы обновляются четыре раза в сутки: в 02, 08, 14, 20 ч всемирного времени.


Выбрать прогноз по другой модели Ейск
Онлайн-сводка гроз по Ейск (для РФ и ближнего зарубежья)
Карта фактических гроз в окрестностях Ейск
Динамические прогностические карты (ventusky.com)
Прогностическая карта высоты нижней границы облаков по Ейск (windy.com)
Выбрать другой город

Прогноз предназначен для личного научно-познавательного использования частными лицами
и не предназначен для принятия важных решений и выполнения реальных полётов воздушных судов

При копировании или ином использовании любых материалов данного сайта ссылка на © meteocenter.asia обязательна.

1.09/1.5